UPSVAC Airport Information Service

Seoul Incheon International Airport

ICAO: RKSI Country: South Korea
Latitude: 37.4691 Longitude: 126.451
Latest Arrival : SOX7950 (A) (KORD-RKSI) Latest Departure : UPS1243 (RKSI-PANC)


WX CaptureLIVE
Data provided by noaa.gov | Fetched at 14:06:54

METAR : RKSI 251330Z 31002KT 9000 NSC 05/01 Q1023 NOSIG

TAF : RKSI 251100Z 2512/2618 33006KT CAVOK TN03/2522Z TX06/2605Z BECMG 2514/2515 12006KT 6000 NSC BECMG 2522/2523 25006KT 4000 BR BKN030 OVC100 TEMPO 2600/2603 2000 -RA SCT010 BKN025 OVC100 BECMG 2608/2609 33010KT 6000 NSW SCT030 BECMG 2613/2614 33015G25KT CAVOK


Runway Data for RKSI
Data provided by openaviationdata.com

Runway ID Mag Var Hdg Length Elevation Surface ILS Freq ILS Id ILS Slope
15L -8 152° 12308 ft 23 ft Asphalt 111.9 ISLL 3
15R -8 152° 12308 ft 23 ft Asphalt 109.1 ISRR 3
33L -8 332° 12308 ft 23 ft Asphalt 109.3 INLL 3
33R -8 332° 12308 ft 23 ft Asphalt 108.9 INRR 3

Seoul Incheon International Airport, South Korea
Use only for reference purposes



Not for navigational purposes.